createdAt,value
2022-09-14T00:01:31.563Z,16.80
2022-09-14T00:04:01.207Z,16.70
2022-09-14T00:06:29.238Z,16.70
2022-09-14T00:08:58.254Z,16.50
2022-09-14T00:11:27.343Z,16.50
2022-09-14T00:13:56.163Z,16.50
2022-09-14T00:16:27.920Z,16.50
2022-09-14T00:18:57.792Z,16.40
2022-09-14T00:21:25.746Z,16.40
2022-09-14T00:23:52.762Z,16.40
2022-09-14T00:26:22.524Z,16.30
2022-09-14T00:28:52.324Z,16.40
2022-09-14T00:31:23.401Z,16.40
2022-09-14T00:33:51.796Z,16.50
2022-09-14T00:36:22.352Z,16.40
2022-09-14T00:38:50.014Z,16.40
2022-09-14T00:41:22.226Z,16.20
2022-09-14T00:44:00.004Z,16.40
2022-09-14T00:46:30.113Z,16.30
2022-09-14T00:49:00.886Z,16.30
2022-09-14T00:51:31.565Z,16.40
2022-09-14T00:53:58.492Z,16.50
2022-09-14T00:56:26.667Z,16.50
2022-09-14T00:58:54.993Z,16.70
2022-09-14T01:01:22.242Z,16.80
2022-09-14T01:03:49.079Z,16.90
2022-09-14T01:06:43.323Z,16.70
2022-09-14T01:09:14.889Z,16.80
2022-09-14T01:12:24.907Z,16.80
2022-09-14T01:15:18.218Z,16.80
2022-09-14T01:18:01.743Z,16.90
2022-09-14T01:20:59.824Z,17.00
2022-09-14T01:23:26.843Z,16.80
2022-09-14T01:26:08.864Z,17.00
2022-09-14T01:28:46.679Z,16.90
2022-09-14T01:31:26.302Z,17.00
2022-09-14T01:34:02.336Z,17.10
2022-09-14T01:36:31.045Z,17.10
2022-09-14T01:38:59.551Z,17.10
2022-09-14T01:41:30.300Z,17.20
2022-09-14T01:44:12.209Z,17.10
2022-09-14T01:46:53.278Z,16.80
2022-09-14T01:49:52.972Z,16.80
2022-09-14T01:52:27.438Z,16.80
2022-09-14T01:55:03.556Z,17.00
2022-09-14T01:57:36.986Z,16.90
2022-09-14T02:00:10.782Z,17.00
2022-09-14T02:02:44.935Z,17.00
2022-09-14T02:05:29.822Z,17.00
2022-09-14T02:07:57.165Z,17.00
2022-09-14T02:10:26.912Z,17.10
2022-09-14T02:12:55.401Z,17.00
2022-09-14T02:15:23.213Z,16.90
2022-09-14T02:17:50.220Z,17.00
2022-09-14T02:20:50.234Z,17.00
2022-09-14T02:23:18.477Z,17.00
2022-09-14T02:25:46.519Z,17.10
2022-09-14T02:28:13.655Z,17.10
2022-09-14T02:30:57.836Z,17.30
2022-09-14T02:33:53.637Z,17.10
2022-09-14T02:36:31.014Z,17.10
2022-09-14T02:39:08.693Z,17.00
2022-09-14T02:41:54.250Z,17.00
2022-09-14T02:44:39.968Z,16.90
2022-09-14T02:47:22.303Z,17.10
2022-09-14T02:50:10.493Z,17.20
2022-09-14T02:52:46.989Z,17.30
2022-09-14T02:55:19.768Z,17.30
2022-09-14T02:58:11.156Z,17.40
2022-09-14T03:00:44.490Z,17.30
2022-09-14T03:03:13.279Z,17.40
2022-09-14T03:05:41.068Z,17.40
2022-09-14T03:08:10.291Z,17.30
2022-09-14T03:10:38.360Z,17.40
2022-09-14T03:13:05.316Z,17.30
2022-09-14T03:15:32.682Z,17.30
2022-09-14T03:17:59.365Z,17.10
2022-09-14T03:20:29.938Z,16.90
2022-09-14T03:22:59.140Z,16.80
2022-09-14T03:25:26.376Z,16.80
2022-09-14T03:27:56.104Z,16.80
2022-09-14T03:30:27.172Z,16.80
2022-09-14T03:32:53.905Z,16.80
2022-09-14T03:35:21.204Z,16.60
2022-09-14T03:37:48.171Z,16.70
2022-09-14T03:40:21.598Z,16.60
2022-09-14T03:42:52.192Z,16.50
2022-09-14T03:45:20.654Z,16.50
2022-09-14T03:47:47.816Z,16.50
2022-09-14T03:50:15.734Z,16.40
2022-09-14T03:52:42.725Z,16.40
2022-09-14T03:55:11.591Z,16.40
2022-09-14T03:57:39.055Z,16.40
2022-09-14T04:00:08.498Z,16.40
2022-09-14T04:02:35.269Z,16.40
2022-09-14T04:05:02.408Z,16.40
2022-09-14T04:07:29.368Z,16.30
2022-09-14T04:09:56.672Z,16.30
2022-09-14T04:12:23.503Z,16.30
2022-09-14T04:14:50.665Z,16.10
2022-09-14T04:17:17.664Z,16.20
2022-09-14T04:19:45.030Z,16.30
2022-09-14T04:22:11.969Z,16.30
2022-09-14T04:24:41.315Z,16.30
2022-09-14T04:27:08.052Z,16.30
2022-09-14T04:29:35.231Z,16.30
2022-09-14T04:32:02.212Z,16.30
2022-09-14T04:34:28.996Z,16.30
2022-09-14T04:36:55.811Z,16.30
2022-09-14T04:39:22.964Z,16.30
2022-09-14T04:41:49.972Z,16.30
2022-09-14T04:44:16.811Z,16.30
2022-09-14T04:46:47.343Z,16.30
2022-09-14T04:49:15.756Z,16.30
2022-09-14T04:51:43.012Z,16.30
2022-09-14T04:54:13.156Z,16.20
2022-09-14T04:56:40.710Z,16.20
2022-09-14T04:59:07.672Z,16.20
2022-09-14T05:01:46.084Z,16.10
2022-09-14T05:04:13.017Z,16.20
2022-09-14T05:06:42.497Z,16.40
2022-09-14T05:09:15.226Z,16.40
2022-09-14T05:11:42.695Z,16.40
2022-09-14T05:14:12.721Z,16.50
2022-09-14T05:16:41.443Z,16.70
2022-09-14T05:19:11.674Z,16.70
2022-09-14T05:21:40.895Z,16.90
2022-09-14T05:24:12.914Z,17.00
2022-09-14T05:26:40.939Z,17.00
2022-09-14T05:29:07.741Z,17.10
2022-09-14T05:31:35.025Z,17.20
2022-09-14T05:34:01.879Z,17.00
2022-09-14T05:36:28.784Z,17.00
2022-09-14T05:38:58.810Z,17.00
2022-09-14T05:41:26.052Z,17.10
2022-09-14T05:43:52.807Z,17.00
2022-09-14T05:46:23.374Z,16.80
2022-09-14T05:48:51.899Z,17.00
2022-09-14T05:51:24.187Z,17.00
2022-09-14T05:53:52.786Z,16.90
2022-09-14T05:56:21.125Z,16.80
2022-09-14T05:58:48.484Z,16.90
2022-09-14T06:01:24.857Z,17.00
2022-09-14T06:03:54.617Z,17.10
2022-09-14T06:06:22.319Z,17.10
2022-09-14T06:08:52.756Z,17.20
2022-09-14T06:11:23.598Z,17.20
2022-09-14T06:13:51.245Z,17.30
2022-09-14T06:16:20.470Z,17.30
2022-09-14T06:18:48.747Z,17.20
2022-09-14T06:21:19.735Z,17.20
2022-09-14T06:23:48.068Z,17.30
2022-09-14T06:26:15.900Z,17.30
2022-09-14T06:28:43.242Z,17.60
2022-09-14T06:31:14.338Z,17.70
2022-09-14T06:33:45.434Z,18.00
2022-09-14T06:36:15.483Z,18.00
2022-09-14T06:38:43.014Z,18.00
2022-09-14T06:41:13.611Z,18.30
2022-09-14T06:43:42.393Z,18.80
2022-09-14T06:46:19.905Z,19.00
2022-09-14T06:48:52.817Z,19.10
2022-09-14T06:51:28.449Z,19.20
2022-09-14T06:53:59.455Z,19.10
2022-09-14T06:56:32.266Z,19.30
2022-09-14T06:59:01.482Z,19.10
2022-09-14T07:01:30.335Z,19.10
2022-09-14T07:03:58.375Z,19.10
2022-09-14T07:06:27.371Z,19.00
2022-09-14T07:08:54.597Z,18.90
2022-09-14T07:11:24.108Z,19.00
2022-09-14T07:13:51.843Z,19.10
2022-09-14T07:16:19.225Z,19.20
2022-09-14T07:18:48.081Z,19.40
2022-09-14T07:21:18.584Z,19.50
2022-09-14T07:23:47.100Z,19.50
2022-09-14T07:26:23.390Z,19.50
2022-09-14T07:28:59.564Z,19.60
2022-09-14T07:31:29.541Z,19.60
2022-09-14T07:33:58.498Z,19.70
2022-09-14T07:36:28.009Z,19.90
2022-09-14T07:38:56.345Z,19.90
2022-09-14T07:41:25.258Z,20.00
2022-09-14T07:43:53.913Z,20.20
2022-09-14T07:46:22.162Z,20.40
2022-09-14T07:48:54.228Z,20.50
2022-09-14T07:51:21.590Z,20.60
2022-09-14T07:53:48.707Z,20.40
2022-09-14T07:56:17.472Z,20.50
2022-09-14T07:58:44.905Z,20.40
2022-09-14T08:01:17.919Z,20.60
2022-09-14T08:03:46.309Z,20.90
2022-09-14T08:06:19.526Z,21.10
2022-09-14T08:08:48.134Z,21.00
2022-09-14T08:11:20.627Z,21.10
2022-09-14T08:13:50.906Z,21.20
2022-09-14T08:16:19.722Z,21.30
2022-09-14T08:18:47.357Z,21.20
2022-09-14T08:21:17.358Z,21.20
2022-09-14T08:23:45.332Z,21.30
2022-09-14T08:26:18.120Z,21.50
2022-09-14T08:28:46.238Z,21.60
2022-09-14T08:31:20.925Z,21.30
2022-09-14T08:33:54.257Z,21.40
2022-09-14T08:36:22.556Z,21.30
2022-09-14T08:38:49.618Z,21.10
2022-09-14T08:41:26.695Z,21.30
2022-09-14T08:43:53.811Z,21.30
2022-09-14T08:46:38.732Z,21.40
2022-09-14T08:49:15.415Z,21.50
2022-09-14T08:51:43.503Z,21.50
2022-09-14T08:54:10.752Z,21.70
2022-09-14T08:56:42.229Z,21.80
2022-09-14T08:59:35.976Z,21.90
2022-09-14T09:02:20.669Z,22.10
2022-09-14T09:05:28.126Z,22.00
2022-09-14T09:08:13.474Z,22.30
2022-09-14T09:10:41.410Z,22.20
2022-09-14T09:13:14.555Z,22.30
2022-09-14T09:15:54.629Z,22.50
2022-09-14T09:18:40.751Z,22.70
2022-09-14T09:21:15.759Z,22.00
2022-09-14T09:23:43.108Z,21.50
2022-09-14T09:26:15.614Z,21.50
2022-09-14T09:28:52.284Z,22.30
2022-09-14T09:31:22.883Z,22.70
2022-09-14T09:33:50.955Z,23.00
2022-09-14T09:36:18.981Z,23.60
2022-09-14T09:38:46.203Z,24.10
2022-09-14T09:41:19.252Z,24.20
2022-09-14T09:44:05.683Z,23.90
2022-09-14T09:46:35.103Z,24.20
2022-09-14T09:49:14.669Z,24.20
2022-09-14T09:51:41.573Z,24.10
2022-09-14T09:54:23.899Z,24.00
2022-09-14T09:56:58.076Z,23.90
2022-09-14T09:59:41.436Z,23.80
2022-09-14T10:02:33.126Z,23.90
2022-09-14T10:05:10.498Z,23.90
2022-09-14T10:07:49.696Z,24.00
2022-09-14T10:10:20.229Z,23.70
2022-09-14T10:12:50.144Z,23.10
2022-09-14T10:15:26.015Z,22.30
2022-09-14T10:18:00.540Z,22.20
2022-09-14T10:20:27.715Z,22.50
2022-09-14T10:22:54.594Z,22.70
2022-09-14T10:25:26.027Z,23.30
2022-09-14T10:27:55.510Z,23.60
2022-09-14T10:30:28.672Z,23.70
2022-09-14T10:33:05.801Z,23.30
2022-09-14T10:35:46.375Z,23.40
2022-09-14T10:38:28.091Z,23.50
2022-09-14T10:41:16.458Z,23.40
2022-09-14T10:44:00.993Z,23.20
2022-09-14T10:46:46.928Z,23.00
2022-09-14T10:49:56.377Z,22.90
2022-09-14T10:52:36.827Z,22.90
2022-09-14T10:55:44.706Z,23.00
2022-09-14T10:58:55.647Z,23.20
2022-09-14T11:01:32.166Z,23.60
2022-09-14T11:04:18.216Z,23.80
2022-09-14T11:07:05.461Z,23.30
2022-09-14T11:09:44.692Z,23.60
2022-09-14T11:12:18.858Z,24.20
2022-09-14T11:15:01.330Z,24.70
2022-09-14T11:17:54.328Z,24.90
2022-09-14T11:20:42.458Z,24.70
2022-09-14T11:23:20.922Z,24.30
2022-09-14T11:26:11.260Z,24.40
2022-09-14T11:28:40.706Z,24.40
2022-09-14T11:31:14.354Z,24.40
2022-09-14T11:33:48.825Z,24.00
2022-09-14T11:36:22.410Z,23.90
2022-09-14T11:39:11.839Z,24.10
2022-09-14T11:42:00.309Z,24.00
2022-09-14T11:44:33.475Z,23.70
2022-09-14T11:47:08.509Z,23.60
2022-09-14T11:49:55.358Z,23.50
2022-09-14T11:52:25.357Z,23.60
2022-09-14T11:54:52.704Z,23.80
2022-09-14T11:57:29.622Z,24.10
2022-09-14T12:00:01.948Z,24.00
2022-09-14T12:02:31.365Z,23.80
2022-09-14T12:05:10.654Z,24.10
2022-09-14T12:07:43.610Z,24.20
2022-09-14T12:10:18.916Z,24.40
2022-09-14T12:13:04.229Z,24.10
2022-09-14T12:15:31.027Z,24.20
2022-09-14T12:18:07.058Z,24.50
2022-09-14T12:20:45.424Z,24.70
2022-09-14T12:23:27.885Z,24.70
2022-09-14T12:26:04.269Z,24.70
2022-09-14T12:28:37.766Z,25.00
2022-09-14T12:31:04.809Z,25.30
2022-09-14T12:33:31.834Z,25.30
2022-09-14T12:36:14.118Z,25.00
2022-09-14T12:39:23.342Z,25.10
2022-09-14T12:41:52.156Z,24.70
2022-09-14T12:44:42.599Z,24.40
2022-09-14T12:47:24.451Z,24.20
2022-09-14T12:49:58.107Z,24.40
2022-09-14T12:52:45.035Z,24.60
2022-09-14T12:55:45.086Z,24.30
2022-09-14T12:58:20.563Z,23.90
2022-09-14T13:01:30.011Z,23.70
2022-09-14T13:03:58.276Z,23.40
2022-09-14T13:06:34.107Z,23.30
2022-09-14T13:09:03.706Z,23.20
2022-09-14T13:11:37.139Z,22.90
2022-09-14T13:14:04.388Z,23.00
2022-09-14T13:16:40.074Z,22.80
2022-09-14T13:19:20.762Z,23.10
2022-09-14T13:21:49.944Z,23.30
2022-09-14T13:24:26.061Z,23.60
2022-09-14T13:26:56.527Z,23.60
2022-09-14T13:29:24.740Z,23.80
2022-09-14T13:31:51.762Z,24.00
2022-09-14T13:34:41.222Z,23.90
2022-09-14T13:37:08.028Z,23.90
2022-09-14T13:39:40.227Z,23.40
2022-09-14T13:42:08.351Z,23.30
2022-09-14T13:44:42.109Z,23.00
2022-09-14T13:47:13.494Z,22.90
2022-09-14T13:49:41.712Z,23.10
2022-09-14T13:52:19.147Z,23.20
2022-09-14T13:54:46.720Z,23.30
2022-09-14T13:57:19.370Z,23.40
2022-09-14T14:00:14.169Z,23.60
2022-09-14T14:02:46.544Z,23.80
2022-09-14T14:05:23.665Z,23.90
2022-09-14T14:07:51.417Z,24.10
2022-09-14T14:10:24.896Z,23.70
2022-09-14T14:12:51.882Z,23.30
2022-09-14T14:15:19.007Z,23.10
2022-09-14T14:17:45.720Z,23.40
2022-09-14T14:20:24.737Z,23.70
2022-09-14T14:23:20.172Z,23.90
2022-09-14T14:25:52.300Z,24.00
2022-09-14T14:28:30.640Z,23.80
2022-09-14T14:31:00.958Z,23.70
2022-09-14T14:33:29.867Z,23.50
2022-09-14T14:35:57.047Z,23.60
2022-09-14T14:38:25.099Z,23.50
2022-09-14T14:40:55.950Z,23.30
2022-09-14T14:43:25.563Z,23.10
2022-09-14T14:45:58.049Z,23.00
2022-09-14T14:48:25.234Z,22.90
2022-09-14T14:50:53.016Z,23.00
2022-09-14T14:53:20.043Z,23.00
2022-09-14T14:55:48.272Z,22.80
2022-09-14T14:58:19.701Z,22.70
2022-09-14T15:00:47.714Z,22.60
2022-09-14T15:03:15.570Z,22.80
2022-09-14T15:05:48.162Z,22.90
2022-09-14T15:08:17.154Z,22.80
2022-09-14T15:10:44.307Z,22.50
2022-09-14T15:13:12.283Z,22.60
2022-09-14T15:15:44.538Z,22.70
2022-09-14T15:18:11.533Z,22.50
2022-09-14T15:20:38.532Z,22.50
2022-09-14T15:23:06.170Z,22.70
2022-09-14T15:25:33.461Z,22.80
2022-09-14T15:28:00.379Z,22.70
2022-09-14T15:30:27.153Z,22.60
2022-09-14T15:32:54.465Z,22.60
2022-09-14T15:35:21.157Z,22.50
2022-09-14T15:37:48.560Z,22.50
2022-09-14T15:40:15.636Z,22.40
2022-09-14T15:42:42.757Z,22.40
2022-09-14T15:45:10.030Z,22.20
2022-09-14T15:47:36.917Z,22.20
2022-09-14T15:50:05.760Z,22.10
2022-09-14T15:52:36.163Z,22.00
2022-09-14T15:55:04.234Z,21.90
2022-09-14T15:57:31.061Z,21.70
2022-09-14T15:59:57.833Z,21.80
2022-09-14T16:02:25.113Z,21.80
2022-09-14T16:04:51.952Z,22.00
2022-09-14T16:07:19.052Z,22.00
2022-09-14T16:09:45.928Z,22.00
2022-09-14T16:12:13.453Z,21.80
2022-09-14T16:14:40.164Z,21.70
2022-09-14T16:17:08.648Z,21.50
2022-09-14T16:19:35.888Z,21.40
2022-09-14T16:22:03.357Z,21.20
2022-09-14T16:24:31.177Z,21.00
2022-09-14T16:26:59.688Z,20.90
2022-09-14T16:29:26.623Z,21.00
2022-09-14T16:31:53.843Z,21.00
2022-09-14T16:34:25.296Z,20.90
2022-09-14T16:36:52.244Z,20.70
2022-09-14T16:39:23.091Z,20.60
2022-09-14T16:41:50.447Z,20.60
2022-09-14T16:44:20.113Z,20.60
2022-09-14T16:46:49.267Z,20.50
2022-09-14T16:49:17.075Z,20.40
2022-09-14T16:51:44.468Z,20.40
2022-09-14T16:54:16.329Z,20.40
2022-09-14T16:56:44.556Z,20.30
2022-09-14T16:59:12.238Z,20.30
2022-09-14T17:01:41.964Z,20.20
2022-09-14T17:04:15.184Z,20.20
2022-09-14T17:06:44.719Z,20.20
2022-09-14T17:09:22.255Z,20.20
2022-09-14T17:11:49.218Z,20.20
2022-09-14T17:14:18.116Z,20.20
2022-09-14T17:16:45.247Z,20.20
2022-09-14T17:19:12.598Z,20.20
2022-09-14T17:21:43.098Z,20.10
2022-09-14T17:24:09.955Z,20.10
2022-09-14T17:26:37.781Z,20.10
2022-09-14T17:29:05.680Z,20.00
2022-09-14T17:31:36.720Z,20.00
2022-09-14T17:34:05.284Z,20.00
2022-09-14T17:36:32.749Z,19.90
2022-09-14T17:39:02.726Z,19.90
2022-09-14T17:41:31.708Z,19.90
2022-09-14T17:44:04.258Z,19.90
2022-09-14T17:46:32.220Z,20.00
2022-09-14T17:49:00.625Z,19.80
2022-09-14T17:51:29.569Z,19.80
2022-09-14T17:53:57.950Z,19.80
2022-09-14T17:56:27.072Z,19.70
2022-09-14T17:59:12.812Z,19.80
2022-09-14T18:01:40.584Z,19.90
2022-09-14T18:04:10.710Z,20.10
2022-09-14T18:06:43.619Z,20.00
2022-09-14T18:09:16.528Z,20.00
2022-09-14T18:11:44.649Z,20.00
2022-09-14T18:14:14.055Z,20.00
2022-09-14T18:16:42.160Z,20.10
2022-09-14T18:19:09.410Z,19.90
2022-09-14T18:21:36.522Z,19.90
2022-09-14T18:24:03.858Z,19.90
2022-09-14T18:26:31.123Z,19.90
2022-09-14T18:28:58.798Z,19.70
2022-09-14T18:31:27.053Z,19.80
2022-09-14T18:33:57.901Z,19.90
2022-09-14T18:36:28.832Z,19.90
2022-09-14T18:38:56.490Z,20.00
2022-09-14T18:41:23.888Z,19.90
2022-09-14T18:43:52.658Z,19.70
2022-09-14T18:46:23.277Z,19.60
2022-09-14T18:48:54.602Z,19.50
2022-09-14T18:51:23.449Z,19.60
2022-09-14T18:53:59.700Z,19.70
2022-09-14T18:56:28.057Z,19.80
2022-09-14T18:58:56.253Z,19.80
2022-09-14T19:01:23.177Z,19.80
2022-09-14T19:03:50.201Z,19.80
2022-09-14T19:06:19.067Z,19.80
2022-09-14T19:08:46.660Z,19.80
2022-09-14T19:11:18.906Z,19.80
2022-09-14T19:13:46.993Z,19.70
2022-09-14T19:16:20.288Z,19.80
2022-09-14T19:18:49.818Z,19.80
2022-09-14T19:21:23.844Z,19.90
2022-09-14T19:24:10.485Z,19.90
2022-09-14T19:26:44.750Z,19.80
2022-09-14T19:29:14.343Z,19.70
2022-09-14T19:31:41.201Z,19.80
2022-09-14T19:34:08.109Z,19.70
2022-09-14T19:36:35.871Z,19.70
2022-09-14T19:39:04.383Z,19.70
2022-09-14T19:41:33.947Z,19.80
2022-09-14T19:44:09.483Z,19.70
2022-09-14T19:46:36.980Z,19.60
2022-09-14T19:49:04.227Z,19.60
2022-09-14T19:51:31.639Z,19.60
2022-09-14T19:54:00.604Z,19.60
2022-09-14T19:56:29.972Z,19.50
2022-09-14T19:58:59.865Z,19.40
2022-09-14T20:01:30.993Z,19.50
2022-09-14T20:04:03.457Z,19.50
2022-09-14T20:06:33.064Z,19.30
2022-09-14T20:09:02.288Z,19.40
2022-09-14T20:11:31.013Z,19.50
2022-09-14T20:14:00.152Z,19.50
2022-09-14T20:16:31.777Z,19.50
2022-09-14T20:19:02.464Z,19.50
2022-09-14T20:21:29.230Z,19.60
2022-09-14T20:24:17.622Z,19.40
2022-09-14T20:26:46.514Z,19.50
2022-09-14T20:29:14.288Z,19.40
2022-09-14T20:31:40.966Z,19.40
2022-09-14T20:34:08.093Z,19.40
2022-09-14T20:36:34.885Z,19.20
2022-09-14T20:39:02.021Z,19.00
2022-09-14T20:41:33.882Z,18.90
2022-09-14T20:44:02.369Z,18.90
2022-09-14T20:46:34.960Z,19.10
2022-09-14T20:49:03.150Z,19.00
2022-09-14T20:51:29.885Z,19.10
2022-09-14T20:53:56.865Z,19.20
2022-09-14T20:56:25.728Z,19.30
2022-09-14T20:58:57.254Z,19.20
2022-09-14T21:01:27.267Z,19.10
2022-09-14T21:03:55.029Z,19.20
2022-09-14T21:06:24.070Z,19.30
2022-09-14T21:08:51.693Z,19.40
2022-09-14T21:11:26.516Z,19.40
2022-09-14T21:13:55.089Z,19.40
2022-09-14T21:16:25.682Z,19.40
2022-09-14T21:18:59.050Z,19.40
2022-09-14T21:21:26.956Z,19.40
2022-09-14T21:23:56.320Z,19.40
2022-09-14T21:26:25.545Z,19.40
2022-09-14T21:28:57.831Z,19.30
2022-09-14T21:31:25.987Z,19.20
2022-09-14T21:33:55.149Z,19.10
2022-09-14T21:36:25.869Z,19.10
2022-09-14T21:38:56.119Z,19.20
2022-09-14T21:41:28.240Z,19.10
2022-09-14T21:43:56.664Z,19.20
2022-09-14T21:46:24.658Z,19.30
2022-09-14T21:48:52.168Z,19.30
2022-09-14T21:51:19.396Z,19.30
2022-09-14T21:54:00.191Z,19.10
2022-09-14T21:56:29.520Z,19.10
2022-09-14T21:59:03.614Z,19.00
2022-09-14T22:01:31.826Z,19.00
2022-09-14T22:03:59.344Z,19.10
2022-09-14T22:06:28.395Z,19.00
2022-09-14T22:08:56.307Z,19.00
2022-09-14T22:11:26.917Z,19.10
2022-09-14T22:13:55.356Z,19.20
2022-09-14T22:16:23.608Z,19.20
2022-09-14T22:18:53.849Z,19.20
2022-09-14T22:21:21.611Z,19.20
2022-09-14T22:23:54.073Z,19.00
2022-09-14T22:26:21.542Z,18.90
2022-09-14T22:28:49.991Z,19.10
2022-09-14T22:31:18.491Z,19.10
2022-09-14T22:33:45.836Z,19.10
2022-09-14T22:36:12.926Z,19.10
2022-09-14T22:38:42.769Z,19.00
2022-09-14T22:41:12.288Z,18.70
2022-09-14T22:43:40.535Z,18.60
2022-09-14T22:46:08.412Z,18.60
2022-09-14T22:48:36.667Z,18.40
2022-09-14T22:51:05.380Z,18.40
2022-09-14T22:53:33.009Z,18.30
2022-09-14T22:56:06.286Z,18.40
2022-09-14T22:58:33.333Z,18.30
2022-09-14T23:01:09.407Z,18.20
2022-09-14T23:03:36.508Z,18.10
2022-09-14T23:06:04.253Z,17.60
2022-09-14T23:08:31.811Z,17.40
2022-09-14T23:11:06.908Z,17.30
2022-09-14T23:13:38.891Z,17.10
2022-09-14T23:16:19.358Z,16.80
2022-09-14T23:18:51.070Z,16.80
2022-09-14T23:21:18.190Z,16.80
2022-09-14T23:23:45.596Z,16.70
2022-09-14T23:26:12.583Z,16.60
2022-09-14T23:28:40.032Z,16.70
2022-09-14T23:31:07.115Z,16.70
2022-09-14T23:33:34.525Z,16.70
2022-09-14T23:36:01.268Z,16.70
2022-09-14T23:38:28.571Z,16.70
2022-09-14T23:40:55.284Z,16.70
2022-09-14T23:43:22.524Z,16.70
2022-09-14T23:48:17.176Z,16.80
2022-09-14T23:53:26.740Z,16.70
2022-09-14T23:55:54.436Z,16.50
